sensor_id;sensor_type;location;lat;lon;timestamp;temperature;humidity
80252;DHT22;69562;37.974;23.708;2023-05-10T00:02:08;24.00;36.10
80252;DHT22;69562;37.974;23.708;2023-05-10T00:04:33;24.00;36.00
80252;DHT22;69562;37.974;23.708;2023-05-10T00:06:59;24.00;36.10
80252;DHT22;69562;37.974;23.708;2023-05-10T00:09:24;24.00;36.10
80252;DHT22;69562;37.974;23.708;2023-05-10T00:11:50;24.00;36.10
80252;DHT22;69562;37.974;23.708;2023-05-10T00:14:16;24.00;36.10
80252;DHT22;69562;37.974;23.708;2023-05-10T00:16:41;24.00;36.10
80252;DHT22;69562;37.974;23.708;2023-05-10T00:19:07;24.00;36.20
80252;DHT22;69562;37.974;23.708;2023-05-10T00:21:33;24.00;36.10
80252;DHT22;69562;37.974;23.708;2023-05-10T00:23:59;24.00;36.20
80252;DHT22;69562;37.974;23.708;2023-05-10T00:26:24;24.00;36.10
80252;DHT22;69562;37.974;23.708;2023-05-10T00:28:50;24.00;36.20
80252;DHT22;69562;37.974;23.708;2023-05-10T00:31:15;24.00;36.10
80252;DHT22;69562;37.974;23.708;2023-05-10T00:33:41;24.00;36.20
80252;DHT22;69562;37.974;23.708;2023-05-10T00:36:06;24.00;36.20
80252;DHT22;69562;37.974;23.708;2023-05-10T00:38:33;24.00;36.20
80252;DHT22;69562;37.974;23.708;2023-05-10T00:40:58;24.00;36.20
80252;DHT22;69562;37.974;23.708;2023-05-10T00:43:24;24.00;36.20
80252;DHT22;69562;37.974;23.708;2023-05-10T00:45:49;24.00;36.20
80252;DHT22;69562;37.974;23.708;2023-05-10T00:48:15;24.00;36.20
80252;DHT22;69562;37.974;23.708;2023-05-10T00:50:40;24.00;36.20
80252;DHT22;69562;37.974;23.708;2023-05-10T00:53:06;24.00;36.30
80252;DHT22;69562;37.974;23.708;2023-05-10T00:55:32;24.00;36.20
80252;DHT22;69562;37.974;23.708;2023-05-10T00:57:58;24.00;36.20
80252;DHT22;69562;37.974;23.708;2023-05-10T01:00:24;24.00;36.20
80252;DHT22;69562;37.974;23.708;2023-05-10T01:02:49;24.00;36.20
80252;DHT22;69562;37.974;23.708;2023-05-10T01:05:15;24.00;36.20
80252;DHT22;69562;37.974;23.708;2023-05-10T01:07:40;24.00;36.20
80252;DHT22;69562;37.974;23.708;2023-05-10T01:10:06;24.00;36.20
80252;DHT22;69562;37.974;23.708;2023-05-10T01:12:37;24.00;36.20
80252;DHT22;69562;37.974;23.708;2023-05-10T01:15:03;23.90;37.00
80252;DHT22;69562;37.974;23.708;2023-05-10T01:17:30;24.00;36.10
80252;DHT22;69562;37.974;23.708;2023-05-10T01:19:56;24.00;36.00
80252;DHT22;69562;37.974;23.708;2023-05-10T01:35:23;24.00;36.00
80252;DHT22;69562;37.974;23.708;2023-05-10T01:38:15;24.00;35.90
80252;DHT22;69562;37.974;23.708;2023-05-10T01:40:45;24.00;35.90
80252;DHT22;69562;37.974;23.708;2023-05-10T01:43:18;24.00;35.90
80252;DHT22;69562;37.974;23.708;2023-05-10T01:45:48;24.00;35.80
80252;DHT22;69562;37.974;23.708;2023-05-10T01:48:16;24.00;35.80
80252;DHT22;69562;37.974;23.708;2023-05-10T01:50:43;23.90;35.80
80252;DHT22;69562;37.974;23.708;2023-05-10T01:53:09;23.90;35.70
80252;DHT22;69562;37.974;23.708;2023-05-10T01:55:38;24.00;35.80
80252;DHT22;69562;37.974;23.708;2023-05-10T01:58:09;24.00;35.70
80252;DHT22;69562;37.974;23.708;2023-05-10T02:00:35;24.00;35.70
80252;DHT22;69562;37.974;23.708;2023-05-10T02:03:04;24.00;35.70
80252;DHT22;69562;37.974;23.708;2023-05-10T02:05:30;24.00;35.70
80252;DHT22;69562;37.974;23.708;2023-05-10T02:07:57;23.90;35.60
80252;DHT22;69562;37.974;23.708;2023-05-10T02:10:24;23.90;35.60
80252;DHT22;69562;37.974;23.708;2023-05-10T02:12:49;24.00;35.60
80252;DHT22;69562;37.974;23.708;2023-05-10T02:15:20;23.90;35.50
80252;DHT22;69562;37.974;23.708;2023-05-10T02:17:46;24.00;35.60
80252;DHT22;69562;37.974;23.708;2023-05-10T02:20:12;24.00;35.60
80252;DHT22;69562;37.974;23.708;2023-05-10T02:22:39;23.90;35.50
80252;DHT22;69562;37.974;23.708;2023-05-10T02:25:05;23.90;35.50
80252;DHT22;69562;37.974;23.708;2023-05-10T02:27:32;23.90;35.50
80252;DHT22;69562;37.974;23.708;2023-05-10T02:29:58;23.90;35.40
80252;DHT22;69562;37.974;23.708;2023-05-10T02:32:24;23.90;35.40
80252;DHT22;69562;37.974;23.708;2023-05-10T02:34:51;24.00;35.50
80252;DHT22;69562;37.974;23.708;2023-05-10T02:37:20;23.90;35.40
80252;DHT22;69562;37.974;23.708;2023-05-10T02:39:47;23.90;35.40
80252;DHT22;69562;37.974;23.708;2023-05-10T02:42:18;23.90;35.40
80252;DHT22;69562;37.974;23.708;2023-05-10T02:44:45;23.90;35.40
80252;DHT22;69562;37.974;23.708;2023-05-10T02:47:13;23.90;35.50
80252;DHT22;69562;37.974;23.708;2023-05-10T02:49:38;23.90;35.40
80252;DHT22;69562;37.974;23.708;2023-05-10T02:52:04;23.90;35.40
80252;DHT22;69562;37.974;23.708;2023-05-10T02:54:33;23.90;35.40
80252;DHT22;69562;37.974;23.708;2023-05-10T02:56:59;23.90;35.40
80252;DHT22;69562;37.974;23.708;2023-05-10T02:59:26;23.90;35.40
80252;DHT22;69562;37.974;23.708;2023-05-10T03:01:51;23.90;35.40
80252;DHT22;69562;37.974;23.708;2023-05-10T03:04:17;23.90;35.40
80252;DHT22;69562;37.974;23.708;2023-05-10T03:06:43;23.90;35.40
80252;DHT22;69562;37.974;23.708;2023-05-10T03:09:09;23.90;35.30
80252;DHT22;69562;37.974;23.708;2023-05-10T03:20:13;23.90;35.30
80252;DHT22;69562;37.974;23.708;2023-05-10T03:22:20;23.90;35.30
80252;DHT22;69562;37.974;23.708;2023-05-10T03:24:46;23.90;35.30
80252;DHT22;69562;37.974;23.708;2023-05-10T03:27:13;23.90;35.30
80252;DHT22;69562;37.974;23.708;2023-05-10T03:29:39;23.90;35.30
80252;DHT22;69562;37.974;23.708;2023-05-10T03:32:05;23.90;35.30
80252;DHT22;69562;37.974;23.708;2023-05-10T03:34:31;23.90;35.20
80252;DHT22;69562;37.974;23.708;2023-05-10T03:36:56;23.90;35.30
80252;DHT22;69562;37.974;23.708;2023-05-10T03:39:22;23.90;35.20
80252;DHT22;69562;37.974;23.708;2023-05-10T03:41:48;23.90;35.20
80252;DHT22;69562;37.974;23.708;2023-05-10T03:44:13;23.90;35.20
80252;DHT22;69562;37.974;23.708;2023-05-10T03:46:39;23.90;35.10
80252;DHT22;69562;37.974;23.708;2023-05-10T03:49:04;23.90;35.10
80252;DHT22;69562;37.974;23.708;2023-05-10T03:51:30;23.90;35.10
80252;DHT22;69562;37.974;23.708;2023-05-10T03:53:56;23.90;35.10
80252;DHT22;69562;37.974;23.708;2023-05-10T03:56:22;23.90;35.10
80252;DHT22;69562;37.974;23.708;2023-05-10T03:58:48;23.90;35.00
80252;DHT22;69562;37.974;23.708;2023-05-10T04:01:13;23.90;35.10
80252;DHT22;69562;37.974;23.708;2023-05-10T04:03:39;23.90;35.00
80252;DHT22;69562;37.974;23.708;2023-05-10T04:06:04;23.90;35.00
80252;DHT22;69562;37.974;23.708;2023-05-10T04:08:30;23.90;35.00
80252;DHT22;69562;37.974;23.708;2023-05-10T04:11:08;23.90;35.00
80252;DHT22;69562;37.974;23.708;2023-05-10T04:13:34;23.90;34.90
80252;DHT22;69562;37.974;23.708;2023-05-10T04:16:00;23.90;34.90
80252;DHT22;69562;37.974;23.708;2023-05-10T04:18:25;23.90;34.90
80252;DHT22;69562;37.974;23.708;2023-05-10T04:20:51;23.90;35.10
80252;DHT22;69562;37.974;23.708;2023-05-10T04:23:17;23.90;35.30
80252;DHT22;69562;37.974;23.708;2023-05-10T04:25:42;23.90;35.50
80252;DHT22;69562;37.974;23.708;2023-05-10T04:28:08;24.00;35.60
80252;DHT22;69562;37.974;23.708;2023-05-10T04:30:34;23.90;35.40
80252;DHT22;69562;37.974;23.708;2023-05-10T04:33:01;23.90;35.40
80252;DHT22;69562;37.974;23.708;2023-05-10T04:35:27;23.90;35.60
80252;DHT22;69562;37.974;23.708;2023-05-10T04:37:53;23.90;35.40
80252;DHT22;69562;37.974;23.708;2023-05-10T04:40:19;23.90;35.40
80252;DHT22;69562;37.974;23.708;2023-05-10T04:42:45;23.90;35.30
80252;DHT22;69562;37.974;23.708;2023-05-10T04:45:10;23.90;35.30
80252;DHT22;69562;37.974;23.708;2023-05-10T04:47:36;23.90;35.30
80252;DHT22;69562;37.974;23.708;2023-05-10T04:50:02;23.90;35.20
80252;DHT22;69562;37.974;23.708;2023-05-10T04:52:28;23.90;35.20
80252;DHT22;69562;37.974;23.708;2023-05-10T04:54:54;23.90;35.20
80252;DHT22;69562;37.974;23.708;2023-05-10T04:57:19;23.90;35.10
80252;DHT22;69562;37.974;23.708;2023-05-10T04:59:45;23.90;35.10
80252;DHT22;69562;37.974;23.708;2023-05-10T05:02:10;23.90;35.00
80252;DHT22;69562;37.974;23.708;2023-05-10T05:04:36;23.90;35.00
80252;DHT22;69562;37.974;23.708;2023-05-10T05:07:02;24.00;35.00
80252;DHT22;69562;37.974;23.708;2023-05-10T05:09:27;24.00;35.00
80252;DHT22;69562;37.974;23.708;2023-05-10T05:11:53;24.00;34.90
80252;DHT22;69562;37.974;23.708;2023-05-10T05:14:18;24.00;34.80
80252;DHT22;69562;37.974;23.708;2023-05-10T05:16:46;24.10;34.70
80252;DHT22;69562;37.974;23.708;2023-05-10T05:19:11;24.20;34.60
80252;DHT22;69562;37.974;23.708;2023-05-10T05:21:37;24.20;34.40
80252;DHT22;69562;37.974;23.708;2023-05-10T05:24:02;24.30;34.30
80252;DHT22;69562;37.974;23.708;2023-05-10T05:26:28;24.40;34.40
80252;DHT22;69562;37.974;23.708;2023-05-10T05:28:54;24.40;34.20
80252;DHT22;69562;37.974;23.708;2023-05-10T05:31:20;24.40;34.20
80252;DHT22;69562;37.974;23.708;2023-05-10T05:33:46;24.40;34.20
80252;DHT22;69562;37.974;23.708;2023-05-10T05:36:11;24.50;34.10
80252;DHT22;69562;37.974;23.708;2023-05-10T05:38:37;24.50;34.10
80252;DHT22;69562;37.974;23.708;2023-05-10T05:41:02;24.40;34.00
80252;DHT22;69562;37.974;23.708;2023-05-10T05:43:28;24.40;34.00
80252;DHT22;69562;37.974;23.708;2023-05-10T05:45:54;24.50;34.10
80252;DHT22;69562;37.974;23.708;2023-05-10T05:48:20;24.50;34.10
80252;DHT22;69562;37.974;23.708;2023-05-10T05:50:45;24.50;34.10
80252;DHT22;69562;37.974;23.708;2023-05-10T05:53:11;24.40;34.00
80252;DHT22;69562;37.974;23.708;2023-05-10T05:55:36;24.40;34.00
80252;DHT22;69562;37.974;23.708;2023-05-10T05:58:02;24.50;34.10
80252;DHT22;69562;37.974;23.708;2023-05-10T06:00:28;24.50;34.10
80252;DHT22;69562;37.974;23.708;2023-05-10T06:02:53;24.50;34.00
80252;DHT22;69562;37.974;23.708;2023-05-10T06:05:19;24.50;34.00
80252;DHT22;69562;37.974;23.708;2023-05-10T06:07:46;24.50;34.00
80252;DHT22;69562;37.974;23.708;2023-05-10T06:10:11;24.50;34.00
80252;DHT22;69562;37.974;23.708;2023-05-10T06:12:37;24.50;34.00
80252;DHT22;69562;37.974;23.708;2023-05-10T06:15:03;24.50;34.00
80252;DHT22;69562;37.974;23.708;2023-05-10T06:17:28;24.50;34.00
80252;DHT22;69562;37.974;23.708;2023-05-10T06:19:54;24.50;33.90
80252;DHT22;69562;37.974;23.708;2023-05-10T06:22:20;24.50;33.90
80252;DHT22;69562;37.974;23.708;2023-05-10T06:24:48;24.60;34.80
80252;DHT22;69562;37.974;23.708;2023-05-10T06:27:13;24.60;33.80
80252;DHT22;69562;37.974;23.708;2023-05-10T06:29:39;24.60;33.70
80252;DHT22;69562;37.974;23.708;2023-05-10T06:32:04;24.60;33.70
80252;DHT22;69562;37.974;23.708;2023-05-10T06:34:30;24.60;33.60
80252;DHT22;69562;37.974;23.708;2023-05-10T06:36:55;24.60;33.50
80252;DHT22;69562;37.974;23.708;2023-05-10T06:39:21;24.60;33.50
80252;DHT22;69562;37.974;23.708;2023-05-10T06:41:47;24.60;33.50
80252;DHT22;69562;37.974;23.708;2023-05-10T06:44:13;24.70;33.60
80252;DHT22;69562;37.974;23.708;2023-05-10T06:46:38;24.70;33.50
80252;DHT22;69562;37.974;23.708;2023-05-10T06:49:04;24.70;33.50
80252;DHT22;69562;37.974;23.708;2023-05-10T06:51:29;24.70;33.50
80252;DHT22;69562;37.974;23.708;2023-05-10T06:53:56;24.70;33.50
80252;DHT22;69562;37.974;23.708;2023-05-10T06:56:21;24.70;33.40
80252;DHT22;69562;37.974;23.708;2023-05-10T06:58:47;24.70;33.30
80252;DHT22;69562;37.974;23.708;2023-05-10T07:01:13;24.70;33.30
80252;DHT22;69562;37.974;23.708;2023-05-10T07:03:38;24.70;34.30
80252;DHT22;69562;37.974;23.708;2023-05-10T07:06:04;24.70;33.30
80252;DHT22;69562;37.974;23.708;2023-05-10T07:08:30;24.80;33.30
80252;DHT22;69562;37.974;23.708;2023-05-10T07:11:03;24.80;33.30
80252;DHT22;69562;37.974;23.708;2023-05-10T07:13:29;24.80;33.20
80252;DHT22;69562;37.974;23.708;2023-05-10T07:15:55;24.80;33.20
80252;DHT22;69562;37.974;23.708;2023-05-10T07:18:21;24.70;33.30
80252;DHT22;69562;37.974;23.708;2023-05-10T07:20:46;24.80;33.30
80252;DHT22;69562;37.974;23.708;2023-05-10T07:23:12;24.80;33.30
80252;DHT22;69562;37.974;23.708;2023-05-10T07:25:37;24.80;33.30
80252;DHT22;69562;37.974;23.708;2023-05-10T07:28:03;24.80;33.30
80252;DHT22;69562;37.974;23.708;2023-05-10T07:30:29;24.70;33.10
80252;DHT22;69562;37.974;23.708;2023-05-10T07:32:54;24.80;33.20
80252;DHT22;69562;37.974;23.708;2023-05-10T07:35:20;24.80;33.20
80252;DHT22;69562;37.974;23.708;2023-05-10T07:37:46;24.80;33.20
80252;DHT22;69562;37.974;23.708;2023-05-10T07:40:11;24.70;33.20
80252;DHT22;69562;37.974;23.708;2023-05-10T07:42:37;24.70;33.40
80252;DHT22;69562;37.974;23.708;2023-05-10T07:45:03;24.80;33.20
80252;DHT22;69562;37.974;23.708;2023-05-10T07:47:29;24.80;33.30
80252;DHT22;69562;37.974;23.708;2023-05-10T07:49:55;24.80;33.20
80252;DHT22;69562;37.974;23.708;2023-05-10T07:52:20;24.70;33.30
80252;DHT22;69562;37.974;23.708;2023-05-10T07:54:46;24.70;33.20
80252;DHT22;69562;37.974;23.708;2023-05-10T07:57:11;24.70;33.30
80252;DHT22;69562;37.974;23.708;2023-05-10T07:59:39;24.70;33.30
80252;DHT22;69562;37.974;23.708;2023-05-10T08:02:05;24.70;33.30
80252;DHT22;69562;37.974;23.708;2023-05-10T08:04:31;24.70;33.40
80252;DHT22;69562;37.974;23.708;2023-05-10T08:06:56;24.70;33.30
80252;DHT22;69562;37.974;23.708;2023-05-10T08:09:22;24.70;33.30
80252;DHT22;69562;37.974;23.708;2023-05-10T08:11:49;24.80;33.30
80252;DHT22;69562;37.974;23.708;2023-05-10T08:14:15;24.70;33.20
80252;DHT22;69562;37.974;23.708;2023-05-10T08:16:40;24.70;33.20
80252;DHT22;69562;37.974;23.708;2023-05-10T08:19:06;24.70;33.30
80252;DHT22;69562;37.974;23.708;2023-05-10T08:21:31;24.70;33.20
80252;DHT22;69562;37.974;23.708;2023-05-10T08:23:57;24.70;33.30
80252;DHT22;69562;37.974;23.708;2023-05-10T08:26:23;24.70;33.20
80252;DHT22;69562;37.974;23.708;2023-05-10T08:28:48;24.70;33.30
80252;DHT22;69562;37.974;23.708;2023-05-10T08:31:14;24.60;33.10
80252;DHT22;69562;37.974;23.708;2023-05-10T08:33:40;24.60;33.10
80252;DHT22;69562;37.974;23.708;2023-05-10T08:36:06;24.60;33.10
80252;DHT22;69562;37.974;23.708;2023-05-10T08:38:31;24.60;33.10
80252;DHT22;69562;37.974;23.708;2023-05-10T08:40:57;24.70;33.10
80252;DHT22;69562;37.974;23.708;2023-05-10T08:43:26;24.70;33.10
80252;DHT22;69562;37.974;23.708;2023-05-10T08:45:52;24.70;33.10
80252;DHT22;69562;37.974;23.708;2023-05-10T08:48:18;24.70;33.10
80252;DHT22;69562;37.974;23.708;2023-05-10T08:50:44;24.70;33.00
80252;DHT22;69562;37.974;23.708;2023-05-10T08:53:11;24.70;33.00
80252;DHT22;69562;37.974;23.708;2023-05-10T08:55:37;24.70;33.00
80252;DHT22;69562;37.974;23.708;2023-05-10T08:58:06;24.70;33.00
80252;DHT22;69562;37.974;23.708;2023-05-10T09:00:32;24.70;33.00
80252;DHT22;69562;37.974;23.708;2023-05-10T09:02:58;24.70;32.90
80252;DHT22;69562;37.974;23.708;2023-05-10T09:05:24;24.70;32.90
80252;DHT22;69562;37.974;23.708;2023-05-10T09:07:50;24.70;32.90
80252;DHT22;69562;37.974;23.708;2023-05-10T09:10:15;24.70;32.90
80252;DHT22;69562;37.974;23.708;2023-05-10T09:12:41;24.70;32.90
80252;DHT22;69562;37.974;23.708;2023-05-10T09:15:09;24.70;33.00
80252;DHT22;69562;37.974;23.708;2023-05-10T09:17:35;24.70;32.90
80252;DHT22;69562;37.974;23.708;2023-05-10T09:20:04;24.70;32.90
80252;DHT22;69562;37.974;23.708;2023-05-10T09:22:30;24.70;32.90
80252;DHT22;69562;37.974;23.708;2023-05-10T09:25:05;24.70;32.80
80252;DHT22;69562;37.974;23.708;2023-05-10T09:27:32;24.70;32.80
80252;DHT22;69562;37.974;23.708;2023-05-10T09:29:57;24.70;32.80
80252;DHT22;69562;37.974;23.708;2023-05-10T09:32:35;24.70;32.90
80252;DHT22;69562;37.974;23.708;2023-05-10T09:35:08;24.70;32.80
80252;DHT22;69562;37.974;23.708;2023-05-10T09:37:33;24.60;32.80
80252;DHT22;69562;37.974;23.708;2023-05-10T09:39:59;24.70;32.90
80252;DHT22;69562;37.974;23.708;2023-05-10T09:42:24;24.70;32.80
80252;DHT22;69562;37.974;23.708;2023-05-10T09:44:50;24.70;32.80
80252;DHT22;69562;37.974;23.708;2023-05-10T09:47:19;24.70;32.80
80252;DHT22;69562;37.974;23.708;2023-05-10T09:49:49;24.70;32.80
80252;DHT22;69562;37.974;23.708;2023-05-10T09:52:14;24.70;32.70
80252;DHT22;69562;37.974;23.708;2023-05-10T09:54:42;24.70;32.70
80252;DHT22;69562;37.974;23.708;2023-05-10T09:57:18;24.70;32.70
80252;DHT22;69562;37.974;23.708;2023-05-10T09:59:45;24.70;32.70
80252;DHT22;69562;37.974;23.708;2023-05-10T10:02:11;24.70;32.60
80252;DHT22;69562;37.974;23.708;2023-05-10T10:04:40;24.70;32.70
80252;DHT22;69562;37.974;23.708;2023-05-10T10:07:06;24.70;32.60
80252;DHT22;69562;37.974;23.708;2023-05-10T10:09:32;24.70;32.70
80252;DHT22;69562;37.974;23.708;2023-05-10T10:11:57;24.70;32.60
80252;DHT22;69562;37.974;23.708;2023-05-10T10:14:24;24.70;32.70
80252;DHT22;69562;37.974;23.708;2023-05-10T10:16:51;24.70;32.60
80252;DHT22;69562;37.974;23.708;2023-05-10T10:19:20;24.70;32.60
80252;DHT22;69562;37.974;23.708;2023-05-10T10:21:49;24.70;32.60
80252;DHT22;69562;37.974;23.708;2023-05-10T10:24:14;24.70;32.60
80252;DHT22;69562;37.974;23.708;2023-05-10T10:26:40;24.70;32.60
80252;DHT22;69562;37.974;23.708;2023-05-10T10:29:21;24.70;32.60
80252;DHT22;69562;37.974;23.708;2023-05-10T10:36:47;24.70;32.60
80252;DHT22;69562;37.974;23.708;2023-05-10T10:39:13;24.70;32.50
80252;DHT22;69562;37.974;23.708;2023-05-10T10:41:40;24.70;32.50
80252;DHT22;69562;37.974;23.708;2023-05-10T10:44:22;24.70;32.60
80252;DHT22;69562;37.974;23.708;2023-05-10T10:49:31;24.60;32.60
80252;DHT22;69562;37.974;23.708;2023-05-10T10:54:41;24.70;32.70
80252;DHT22;69562;37.974;23.708;2023-05-10T10:57:12;24.70;32.70
80252;DHT22;69562;37.974;23.708;2023-05-10T10:59:44;24.60;32.60
80252;DHT22;69562;37.974;23.708;2023-05-10T11:02:26;24.70;33.80
80252;DHT22;69562;37.974;23.708;2023-05-10T11:04:56;24.60;32.60
80252;DHT22;69562;37.974;23.708;2023-05-10T11:07:21;24.60;32.70
80252;DHT22;69562;37.974;23.708;2023-05-10T11:09:47;24.70;32.80
80252;DHT22;69562;37.974;23.708;2023-05-10T11:12:13;24.60;32.70
80252;DHT22;69562;37.974;23.708;2023-05-10T11:14:39;24.60;32.80
80252;DHT22;69562;37.974;23.708;2023-05-10T11:17:24;24.70;32.90
80252;DHT22;69562;37.974;23.708;2023-05-10T11:22:53;24.70;32.90
80252;DHT22;69562;37.974;23.708;2023-05-10T11:25:19;24.70;32.90
80252;DHT22;69562;37.974;23.708;2023-05-10T11:27:45;24.70;33.00
80252;DHT22;69562;37.974;23.708;2023-05-10T11:30:10;24.70;33.10
80252;DHT22;69562;37.974;23.708;2023-05-10T11:32:37;24.70;33.10
80252;DHT22;69562;37.974;23.708;2023-05-10T11:35:10;24.70;33.10
80252;DHT22;69562;37.974;23.708;2023-05-10T11:37:35;24.60;33.10
80252;DHT22;69562;37.974;23.708;2023-05-10T11:40:01;24.60;33.20
80252;DHT22;69562;37.974;23.708;2023-05-10T11:42:27;24.60;33.20
80252;DHT22;69562;37.974;23.708;2023-05-10T11:44:53;24.60;33.30
80252;DHT22;69562;37.974;23.708;2023-05-10T11:47:19;24.70;33.40
80252;DHT22;69562;37.974;23.708;2023-05-10T11:49:45;24.70;33.50
80252;DHT22;69562;37.974;23.708;2023-05-10T11:52:11;24.70;33.50
80252;DHT22;69562;37.974;23.708;2023-05-10T11:54:36;24.70;33.50
80252;DHT22;69562;37.974;23.708;2023-05-10T11:57:02;24.70;33.60
80252;DHT22;69562;37.974;23.708;2023-05-10T11:59:28;24.60;33.50
80252;DHT22;69562;37.974;23.708;2023-05-10T12:01:54;24.60;33.50
80252;DHT22;69562;37.974;23.708;2023-05-10T12:04:19;24.60;33.50
80252;DHT22;69562;37.974;23.708;2023-05-10T12:06:45;24.60;33.50
80252;DHT22;69562;37.974;23.708;2023-05-10T12:09:11;24.70;33.60
80252;DHT22;69562;37.974;23.708;2023-05-10T12:11:38;24.70;33.60
80252;DHT22;69562;37.974;23.708;2023-05-10T12:14:05;24.60;33.50
80252;DHT22;69562;37.974;23.708;2023-05-10T12:16:31;24.60;33.60
80252;DHT22;69562;37.974;23.708;2023-05-10T12:18:57;24.70;33.80
80252;DHT22;69562;37.974;23.708;2023-05-10T12:21:23;24.60;33.70
80252;DHT22;69562;37.974;23.708;2023-05-10T12:23:52;24.70;33.80
80252;DHT22;69562;37.974;23.708;2023-05-10T12:26:22;24.60;33.80
80252;DHT22;69562;37.974;23.708;2023-05-10T12:28:47;24.60;33.90
80252;DHT22;69562;37.974;23.708;2023-05-10T12:31:13;24.60;33.80
80252;DHT22;69562;37.974;23.708;2023-05-10T12:33:39;24.60;33.90
80252;DHT22;69562;37.974;23.708;2023-05-10T12:36:08;24.70;34.00
80252;DHT22;69562;37.974;23.708;2023-05-10T12:41:00;24.60;34.00
80252;DHT22;69562;37.974;23.708;2023-05-10T12:43:25;24.60;34.00
80252;DHT22;69562;37.974;23.708;2023-05-10T12:45:51;24.70;34.00
80252;DHT22;69562;37.974;23.708;2023-05-10T12:48:16;24.60;34.00
80252;DHT22;69562;37.974;23.708;2023-05-10T12:50:42;24.60;33.90
80252;DHT22;69562;37.974;23.708;2023-05-10T12:53:07;24.60;34.00
80252;DHT22;69562;37.974;23.708;2023-05-10T12:55:33;24.60;34.00
80252;DHT22;69562;37.974;23.708;2023-05-10T12:57:59;24.60;34.00
80252;DHT22;69562;37.974;23.708;2023-05-10T13:00:25;24.60;34.00
80252;DHT22;69562;37.974;23.708;2023-05-10T13:02:50;24.60;34.00
80252;DHT22;69562;37.974;23.708;2023-05-10T13:05:16;24.60;34.00
80252;DHT22;69562;37.974;23.708;2023-05-10T13:07:41;24.60;34.00
80252;DHT22;69562;37.974;23.708;2023-05-10T13:10:09;24.60;34.00
80252;DHT22;69562;37.974;23.708;2023-05-10T13:12:34;24.60;34.00
80252;DHT22;69562;37.974;23.708;2023-05-10T13:15:00;24.60;34.00
80252;DHT22;69562;37.974;23.708;2023-05-10T13:17:26;24.60;34.00
80252;DHT22;69562;37.974;23.708;2023-05-10T13:19:51;24.60;34.10
80252;DHT22;69562;37.974;23.708;2023-05-10T13:22:17;24.70;34.20
80252;DHT22;69562;37.974;23.708;2023-05-10T13:24:43;24.60;34.10
80252;DHT22;69562;37.974;23.708;2023-05-10T13:27:08;24.60;34.20
80252;DHT22;69562;37.974;23.708;2023-05-10T13:29:34;24.60;34.20
80252;DHT22;69562;37.974;23.708;2023-05-10T13:31:59;24.60;34.20
80252;DHT22;69562;37.974;23.708;2023-05-10T13:34:25;24.60;34.30
80252;DHT22;69562;37.974;23.708;2023-05-10T13:36:52;24.60;34.30
80252;DHT22;69562;37.974;23.708;2023-05-10T13:39:19;24.60;34.30
80252;DHT22;69562;37.974;23.708;2023-05-10T13:41:45;24.60;34.30
80252;DHT22;69562;37.974;23.708;2023-05-10T13:44:12;24.60;34.30
80252;DHT22;69562;37.974;23.708;2023-05-10T13:46:37;24.60;34.30
80252;DHT22;69562;37.974;23.708;2023-05-10T13:49:03;24.50;34.30
80252;DHT22;69562;37.974;23.708;2023-05-10T13:51:29;24.60;34.40
80252;DHT22;69562;37.974;23.708;2023-05-10T13:53:54;24.60;34.40
80252;DHT22;69562;37.974;23.708;2023-05-10T13:56:20;24.60;34.50
80252;DHT22;69562;37.974;23.708;2023-05-10T13:58:46;24.60;34.50
80252;DHT22;69562;37.974;23.708;2023-05-10T14:01:11;24.60;34.50
80252;DHT22;69562;37.974;23.708;2023-05-10T14:03:37;24.60;34.50
80252;DHT22;69562;37.974;23.708;2023-05-10T14:06:03;24.60;34.60
80252;DHT22;69562;37.974;23.708;2023-05-10T14:08:28;24.60;34.50
80252;DHT22;69562;37.974;23.708;2023-05-10T14:10:54;24.60;34.50
80252;DHT22;69562;37.974;23.708;2023-05-10T14:13:21;24.60;34.50
80252;DHT22;69562;37.974;23.708;2023-05-10T14:15:47;24.60;34.60
80252;DHT22;69562;37.974;23.708;2023-05-10T14:18:13;24.50;34.50
80252;DHT22;69562;37.974;23.708;2023-05-10T14:20:38;24.60;34.60
80252;DHT22;69562;37.974;23.708;2023-05-10T14:23:04;24.50;34.60
80252;DHT22;69562;37.974;23.708;2023-05-10T14:25:29;24.50;34.60
80252;DHT22;69562;37.974;23.708;2023-05-10T14:27:55;24.50;34.60
80252;DHT22;69562;37.974;23.708;2023-05-10T14:30:21;24.50;34.60
80252;DHT22;69562;37.974;23.708;2023-05-10T14:32:46;24.60;34.70
80252;DHT22;69562;37.974;23.708;2023-05-10T14:35:12;24.60;34.70
80252;DHT22;69562;37.974;23.708;2023-05-10T14:37:38;24.50;34.80
80252;DHT22;69562;37.974;23.708;2023-05-10T14:40:03;24.60;34.70
80252;DHT22;69562;37.974;23.708;2023-05-10T14:42:29;24.50;34.60
80252;DHT22;69562;37.974;23.708;2023-05-10T14:44:55;24.50;34.70
80252;DHT22;69562;37.974;23.708;2023-05-10T14:47:21;24.50;34.60
80252;DHT22;69562;37.974;23.708;2023-05-10T14:49:47;24.50;34.60
80252;DHT22;69562;37.974;23.708;2023-05-10T14:52:12;24.50;34.60
80252;DHT22;69562;37.974;23.708;2023-05-10T14:54:39;24.50;34.90
80252;DHT22;69562;37.974;23.708;2023-05-10T14:57:06;24.50;34.60
80252;DHT22;69562;37.974;23.708;2023-05-10T14:59:31;24.50;34.60
80252;DHT22;69562;37.974;23.708;2023-05-10T15:01:57;24.50;34.70
80252;DHT22;69562;37.974;23.708;2023-05-10T15:04:23;24.50;34.60
80252;DHT22;69562;37.974;23.708;2023-05-10T15:06:48;24.60;34.80
80252;DHT22;69562;37.974;23.708;2023-05-10T15:09:14;24.50;34.70
80252;DHT22;69562;37.974;23.708;2023-05-10T15:11:40;24.60;34.80
80252;DHT22;69562;37.974;23.708;2023-05-10T15:14:06;24.60;34.70
80252;DHT22;69562;37.974;23.708;2023-05-10T15:16:31;24.50;34.70
80252;DHT22;69562;37.974;23.708;2023-05-10T15:18:57;24.50;34.70
80252;DHT22;69562;37.974;23.708;2023-05-10T15:21:22;24.50;34.70
80252;DHT22;69562;37.974;23.708;2023-05-10T15:23:48;24.50;34.80
80252;DHT22;69562;37.974;23.708;2023-05-10T15:26:14;24.50;34.80
80252;DHT22;69562;37.974;23.708;2023-05-10T15:28:39;24.50;34.80
80252;DHT22;69562;37.974;23.708;2023-05-10T15:31:05;24.50;34.80
80252;DHT22;69562;37.974;23.708;2023-05-10T15:33:30;24.50;34.80
80252;DHT22;69562;37.974;23.708;2023-05-10T15:35:56;24.50;34.80
80252;DHT22;69562;37.974;23.708;2023-05-10T15:38:21;24.50;34.80
80252;DHT22;69562;37.974;23.708;2023-05-10T15:40:47;24.50;34.90
80252;DHT22;69562;37.974;23.708;2023-05-10T15:43:13;24.50;34.80
80252;DHT22;69562;37.974;23.708;2023-05-10T15:45:39;24.50;34.80
80252;DHT22;69562;37.974;23.708;2023-05-10T15:48:04;24.50;34.90